sensor_id;sensor_type;location;lat;lon;timestamp;P1;durP1;ratioP1;P2;durP2;ratioP2
14510;SDS011;7341;50.930;4.038;2023-01-08T00:00:18;3.23;;;1.07;;
14510;SDS011;7341;50.930;4.038;2023-01-08T00:02:45;2.23;;;0.93;;
14510;SDS011;7341;50.930;4.038;2023-01-08T00:05:13;3.57;;;0.90;;
14510;SDS011;7341;50.930;4.038;2023-01-08T00:07:43;2.77;;;1.30;;
14510;SDS011;7341;50.930;4.038;2023-01-08T00:10:09;2.00;;;1.10;;
14510;SDS011;7341;50.930;4.038;2023-01-08T00:12:36;3.17;;;1.17;;
14510;SDS011;7341;50.930;4.038;2023-01-08T00:15:03;2.37;;;1.00;;
14510;SDS011;7341;50.930;4.038;2023-01-08T00:17:31;4.10;;;1.30;;
14510;SDS011;7341;50.930;4.038;2023-01-08T00:20:04;3.20;;;1.10;;
14510;SDS011;7341;50.930;4.038;2023-01-08T00:22:37;2.73;;;1.00;;
14510;SDS011;7341;50.930;4.038;2023-01-08T00:25:08;3.47;;;1.10;;
14510;SDS011;7341;50.930;4.038;2023-01-08T00:27:41;4.57;;;1.33;;
14510;SDS011;7341;50.930;4.038;2023-01-08T00:30:08;3.77;;;1.00;;
14510;SDS011;7341;50.930;4.038;2023-01-08T00:32:35;4.03;;;1.40;;
14510;SDS011;7341;50.930;4.038;2023-01-08T00:37:33;2.10;;;0.90;;
14510;SDS011;7341;50.930;4.038;2023-01-08T00:40:01;2.70;;;0.70;;
14510;SDS011;7341;50.930;4.038;2023-01-08T00:42:29;4.30;;;0.90;;
14510;SDS011;7341;50.930;4.038;2023-01-08T00:44:57;1.97;;;0.70;;
14510;SDS011;7341;50.930;4.038;2023-01-08T00:47:30;2.47;;;0.73;;
14510;SDS011;7341;50.930;4.038;2023-01-08T00:49:57;4.07;;;0.80;;
14510;SDS011;7341;50.930;4.038;2023-01-08T00:52:25;2.80;;;1.10;;
14510;SDS011;7341;50.930;4.038;2023-01-08T00:54:52;3.93;;;0.90;;
14510;SDS011;7341;50.930;4.038;2023-01-08T00:57:19;0.83;;;0.60;;
14510;SDS011;7341;50.930;4.038;2023-01-08T00:59:47;1.20;;;0.70;;
14510;SDS011;7341;50.930;4.038;2023-01-08T01:02:14;2.97;;;0.90;;
14510;SDS011;7341;50.930;4.038;2023-01-08T01:04:42;2.67;;;1.27;;
14510;SDS011;7341;50.930;4.038;2023-01-08T01:07:09;3.83;;;1.00;;
14510;SDS011;7341;50.930;4.038;2023-01-08T01:09:35;2.70;;;0.80;;
14510;SDS011;7341;50.930;4.038;2023-01-08T01:12:03;0.97;;;0.80;;
14510;SDS011;7341;50.930;4.038;2023-01-08T01:14:30;3.53;;;1.03;;
14510;SDS011;7341;50.930;4.038;2023-01-08T01:16:58;1.87;;;0.87;;
14510;SDS011;7341;50.930;4.038;2023-01-08T01:19:25;3.00;;;0.93;;
14510;SDS011;7341;50.930;4.038;2023-01-08T01:21:52;2.83;;;0.80;;
14510;SDS011;7341;50.930;4.038;2023-01-08T01:24:19;5.13;;;1.00;;
14510;SDS011;7341;50.930;4.038;2023-01-08T01:26:47;2.60;;;1.00;;
14510;SDS011;7341;50.930;4.038;2023-01-08T01:29:14;0.77;;;0.77;;
14510;SDS011;7341;50.930;4.038;2023-01-08T01:31:42;2.70;;;1.07;;
14510;SDS011;7341;50.930;4.038;2023-01-08T01:34:12;3.07;;;0.80;;
14510;SDS011;7341;50.930;4.038;2023-01-08T01:36:39;3.47;;;1.07;;
14510;SDS011;7341;50.930;4.038;2023-01-08T01:39:06;5.07;;;0.80;;
14510;SDS011;7341;50.930;4.038;2023-01-08T01:41:36;1.13;;;0.93;;
14510;SDS011;7341;50.930;4.038;2023-01-08T01:47:03;2.47;;;1.40;;
14510;SDS011;7341;50.930;4.038;2023-01-08T01:49:38;1.20;;;1.00;;
14510;SDS011;7341;50.930;4.038;2023-01-08T01:52:06;3.87;;;1.30;;
14510;SDS011;7341;50.930;4.038;2023-01-08T01:54:34;2.80;;;1.50;;
14510;SDS011;7341;50.930;4.038;2023-01-08T01:57:03;5.27;;;1.10;;
14510;SDS011;7341;50.930;4.038;2023-01-08T01:59:32;1.43;;;1.03;;
14510;SDS011;7341;50.930;4.038;2023-01-08T02:02:00;5.00;;;1.70;;
14510;SDS011;7341;50.930;4.038;2023-01-08T02:04:28;2.77;;;1.30;;
14510;SDS011;7341;50.930;4.038;2023-01-08T02:06:59;2.77;;;1.60;;
14510;SDS011;7341;50.930;4.038;2023-01-08T02:09:36;3.33;;;1.67;;
14510;SDS011;7341;50.930;4.038;2023-01-08T02:12:09;3.43;;;1.50;;
14510;SDS011;7341;50.930;4.038;2023-01-08T02:14:48;2.47;;;1.37;;
14510;SDS011;7341;50.930;4.038;2023-01-08T02:17:23;1.67;;;1.47;;
14510;SDS011;7341;50.930;4.038;2023-01-08T02:19:55;3.47;;;1.63;;
14510;SDS011;7341;50.930;4.038;2023-01-08T02:22:32;2.93;;;1.63;;
14510;SDS011;7341;50.930;4.038;2023-01-08T02:25:09;3.63;;;1.60;;
14510;SDS011;7341;50.930;4.038;2023-01-08T02:27:46;3.97;;;1.90;;
14510;SDS011;7341;50.930;4.038;2023-01-08T02:30:16;4.80;;;1.63;;
14510;SDS011;7341;50.930;4.038;2023-01-08T02:32:43;5.07;;;1.87;;
14510;SDS011;7341;50.930;4.038;2023-01-08T02:35:16;3.53;;;1.90;;
14510;SDS011;7341;50.930;4.038;2023-01-08T02:37:44;7.20;;;2.10;;
14510;SDS011;7341;50.930;4.038;2023-01-08T02:40:17;6.03;;;1.90;;
14510;SDS011;7341;50.930;4.038;2023-01-08T02:42:54;7.35;;;2.08;;
14510;SDS011;7341;50.930;4.038;2023-01-08T02:45:32;5.10;;;1.90;;
14510;SDS011;7341;50.930;4.038;2023-01-08T02:48:07;1.90;;;1.37;;
14510;SDS011;7341;50.930;4.038;2023-01-08T02:50:39;4.37;;;1.80;;
14510;SDS011;7341;50.930;4.038;2023-01-08T02:53:12;5.00;;;1.83;;
14510;SDS011;7341;50.930;4.038;2023-01-08T02:55:44;2.57;;;1.93;;
14510;SDS011;7341;50.930;4.038;2023-01-08T02:58:18;2.77;;;1.33;;
14510;SDS011;7341;50.930;4.038;2023-01-08T03:00:49;2.07;;;1.47;;
14510;SDS011;7341;50.930;4.038;2023-01-08T03:03:17;3.43;;;1.40;;
14510;SDS011;7341;50.930;4.038;2023-01-08T03:05:47;2.43;;;1.40;;
14510;SDS011;7341;50.930;4.038;2023-01-08T03:08:19;5.23;;;1.37;;
14510;SDS011;7341;50.930;4.038;2023-01-08T03:10:49;1.80;;;1.10;;
14510;SDS011;7341;50.930;4.038;2023-01-08T03:13:22;2.70;;;1.30;;
14510;SDS011;7341;50.930;4.038;2023-01-08T03:15:53;4.57;;;1.30;;
14510;SDS011;7341;50.930;4.038;2023-01-08T03:18:23;2.10;;;0.90;;
14510;SDS011;7341;50.930;4.038;2023-01-08T03:20:56;3.37;;;1.10;;
14510;SDS011;7341;50.930;4.038;2023-01-08T03:23:23;1.73;;;0.90;;
14510;SDS011;7341;50.930;4.038;2023-01-08T03:25:53;3.93;;;1.00;;
14510;SDS011;7341;50.930;4.038;2023-01-08T03:28:22;2.20;;;0.83;;
14510;SDS011;7341;50.930;4.038;2023-01-08T03:30:54;2.43;;;0.97;;
14510;SDS011;7341;50.930;4.038;2023-01-08T03:33:24;1.93;;;0.73;;
14510;SDS011;7341;50.930;4.038;2023-01-08T03:35:53;3.23;;;0.93;;
14510;SDS011;7341;50.930;4.038;2023-01-08T03:38:25;2.97;;;1.20;;
14510;SDS011;7341;50.930;4.038;2023-01-08T03:41:00;1.30;;;0.83;;
14510;SDS011;7341;50.930;4.038;2023-01-08T03:43:32;3.08;;;1.17;;
14510;SDS011;7341;50.930;4.038;2023-01-08T03:46:00;1.37;;;1.00;;
14510;SDS011;7341;50.930;4.038;2023-01-08T03:48:29;2.80;;;1.10;;
14510;SDS011;7341;50.930;4.038;2023-01-08T03:51:01;9.50;;;1.10;;
14510;SDS011;7341;50.930;4.038;2023-01-08T03:53:28;4.23;;;1.33;;
14510;SDS011;7341;50.930;4.038;2023-01-08T03:55:58;3.67;;;1.10;;
14510;SDS011;7341;50.930;4.038;2023-01-08T03:58:27;3.47;;;1.10;;
14510;SDS011;7341;50.930;4.038;2023-01-08T04:00:56;4.80;;;1.10;;
14510;SDS011;7341;50.930;4.038;2023-01-08T04:03:23;2.53;;;0.93;;
14510;SDS011;7341;50.930;4.038;2023-01-08T04:05:50;5.03;;;1.20;;
14510;SDS011;7341;50.930;4.038;2023-01-08T04:08:17;4.00;;;1.13;;
14510;SDS011;7341;50.930;4.038;2023-01-08T04:10:44;5.37;;;1.43;;
14510;SDS011;7341;50.930;4.038;2023-01-08T04:13:11;3.07;;;0.90;;
14510;SDS011;7341;50.930;4.038;2023-01-08T04:15:37;4.07;;;0.93;;
14510;SDS011;7341;50.930;4.038;2023-01-08T04:18:06;5.60;;;1.30;;
14510;SDS011;7341;50.930;4.038;2023-01-08T04:20:32;5.93;;;1.27;;
14510;SDS011;7341;50.930;4.038;2023-01-08T04:22:59;7.07;;;1.20;;
14510;SDS011;7341;50.930;4.038;2023-01-08T04:25:26;5.63;;;1.73;;
14510;SDS011;7341;50.930;4.038;2023-01-08T04:27:53;7.00;;;1.57;;
14510;SDS011;7341;50.930;4.038;2023-01-08T04:30:20;5.20;;;1.50;;
14510;SDS011;7341;50.930;4.038;2023-01-08T04:32:46;5.87;;;1.30;;
14510;SDS011;7341;50.930;4.038;2023-01-08T04:35:15;6.20;;;1.40;;
14510;SDS011;7341;50.930;4.038;2023-01-08T04:37:41;6.60;;;1.60;;
14510;SDS011;7341;50.930;4.038;2023-01-08T04:40:09;6.70;;;1.80;;
14510;SDS011;7341;50.930;4.038;2023-01-08T04:42:36;8.10;;;1.40;;
14510;SDS011;7341;50.930;4.038;2023-01-08T04:45:03;7.47;;;1.40;;
14510;SDS011;7341;50.930;4.038;2023-01-08T04:47:31;6.47;;;1.40;;
14510;SDS011;7341;50.930;4.038;2023-01-08T04:49:58;7.10;;;1.80;;
14510;SDS011;7341;50.930;4.038;2023-01-08T04:52:27;7.63;;;1.67;;
14510;SDS011;7341;50.930;4.038;2023-01-08T04:54:54;8.63;;;1.80;;
14510;SDS011;7341;50.930;4.038;2023-01-08T04:57:21;8.83;;;1.67;;
14510;SDS011;7341;50.930;4.038;2023-01-08T04:59:48;7.90;;;1.93;;
14510;SDS011;7341;50.930;4.038;2023-01-08T05:02:15;5.50;;;1.50;;
14510;SDS011;7341;50.930;4.038;2023-01-08T05:04:41;10.57;;;1.70;;
14510;SDS011;7341;50.930;4.038;2023-01-08T05:07:09;4.00;;;1.50;;
14510;SDS011;7341;50.930;4.038;2023-01-08T05:09:38;6.83;;;1.83;;
14510;SDS011;7341;50.930;4.038;2023-01-08T05:12:06;6.23;;;1.90;;
14510;SDS011;7341;50.930;4.038;2023-01-08T05:14:36;5.10;;;2.03;;
14510;SDS011;7341;50.930;4.038;2023-01-08T05:17:09;8.88;;;2.42;;
14510;SDS011;7341;50.930;4.038;2023-01-08T05:19:35;8.73;;;2.00;;
14510;SDS011;7341;50.930;4.038;2023-01-08T05:24:32;9.33;;;1.90;;
14510;SDS011;7341;50.930;4.038;2023-01-08T05:27:00;6.50;;;1.60;;
14510;SDS011;7341;50.930;4.038;2023-01-08T05:29:30;8.70;;;1.77;;
14510;SDS011;7341;50.930;4.038;2023-01-08T05:31:58;6.23;;;1.70;;
14510;SDS011;7341;50.930;4.038;2023-01-08T05:34:25;9.97;;;1.80;;
14510;SDS011;7341;50.930;4.038;2023-01-08T05:36:51;6.10;;;1.60;;
14510;SDS011;7341;50.930;4.038;2023-01-08T05:39:20;9.17;;;1.60;;
14510;SDS011;7341;50.930;4.038;2023-01-08T05:41:48;5.80;;;1.63;;
14510;SDS011;7341;50.930;4.038;2023-01-08T05:44:16;6.70;;;1.60;;
14510;SDS011;7341;50.930;4.038;2023-01-08T05:46:43;5.77;;;1.70;;
14510;SDS011;7341;50.930;4.038;2023-01-08T05:49:10;9.67;;;2.17;;
14510;SDS011;7341;50.930;4.038;2023-01-08T05:51:36;9.23;;;1.60;;
14510;SDS011;7341;50.930;4.038;2023-01-08T05:54:05;5.03;;;1.50;;
14510;SDS011;7341;50.930;4.038;2023-01-08T05:56:32;6.27;;;1.60;;
14510;SDS011;7341;50.930;4.038;2023-01-08T05:59:00;10.63;;;1.70;;
14510;SDS011;7341;50.930;4.038;2023-01-08T06:01:28;12.77;;;1.87;;
14510;SDS011;7341;50.930;4.038;2023-01-08T06:03:56;5.83;;;1.13;;
14510;SDS011;7341;50.930;4.038;2023-01-08T06:06:25;10.37;;;1.90;;
14510;SDS011;7341;50.930;4.038;2023-01-08T06:08:53;8.67;;;1.50;;
14510;SDS011;7341;50.930;4.038;2023-01-08T06:11:26;5.53;;;1.77;;
14510;SDS011;7341;50.930;4.038;2023-01-08T06:13:54;7.27;;;1.63;;
14510;SDS011;7341;50.930;4.038;2023-01-08T06:16:21;9.10;;;1.70;;
14510;SDS011;7341;50.930;4.038;2023-01-08T06:18:53;8.33;;;1.53;;
14510;SDS011;7341;50.930;4.038;2023-01-08T06:21:25;9.27;;;1.57;;
14510;SDS011;7341;50.930;4.038;2023-01-08T06:23:58;6.37;;;1.63;;
14510;SDS011;7341;50.930;4.038;2023-01-08T06:26:25;10.03;;;1.93;;
14510;SDS011;7341;50.930;4.038;2023-01-08T06:28:52;8.57;;;1.80;;
14510;SDS011;7341;50.930;4.038;2023-01-08T06:31:18;5.53;;;1.30;;
14510;SDS011;7341;50.930;4.038;2023-01-08T06:33:46;6.13;;;1.60;;
14510;SDS011;7341;50.930;4.038;2023-01-08T06:36:14;7.40;;;1.63;;
14510;SDS011;7341;50.930;4.038;2023-01-08T06:38:47;6.37;;;1.37;;
14510;SDS011;7341;50.930;4.038;2023-01-08T06:41:15;5.90;;;1.80;;
14510;SDS011;7341;50.930;4.038;2023-01-08T06:43:42;10.70;;;2.43;;
14510;SDS011;7341;50.930;4.038;2023-01-08T06:46:09;7.80;;;1.60;;
14510;SDS011;7341;50.930;4.038;2023-01-08T06:48:36;7.67;;;1.73;;
14510;SDS011;7341;50.930;4.038;2023-01-08T06:51:09;11.17;;;1.97;;
14510;SDS011;7341;50.930;4.038;2023-01-08T06:53:38;7.23;;;2.23;;
14510;SDS011;7341;50.930;4.038;2023-01-08T06:56:05;3.33;;;1.70;;
14510;SDS011;7341;50.930;4.038;2023-01-08T07:01:05;10.37;;;2.43;;
14510;SDS011;7341;50.930;4.038;2023-01-08T07:03:32;8.23;;;2.10;;
14510;SDS011;7341;50.930;4.038;2023-01-08T07:06:01;8.37;;;1.93;;
14510;SDS011;7341;50.930;4.038;2023-01-08T07:08:28;8.27;;;1.70;;
14510;SDS011;7341;50.930;4.038;2023-01-08T07:11:00;9.97;;;2.73;;
14510;SDS011;7341;50.930;4.038;2023-01-08T07:15:57;7.80;;;1.50;;
14510;SDS011;7341;50.930;4.038;2023-01-08T07:18:24;10.57;;;2.03;;
14510;SDS011;7341;50.930;4.038;2023-01-08T07:20:51;8.73;;;1.87;;
14510;SDS011;7341;50.930;4.038;2023-01-08T07:23:18;11.80;;;1.97;;
14510;SDS011;7341;50.930;4.038;2023-01-08T07:25:46;9.87;;;2.03;;
14510;SDS011;7341;50.930;4.038;2023-01-08T07:28:15;9.00;;;1.90;;
14510;SDS011;7341;50.930;4.038;2023-01-08T07:30:44;6.43;;;1.60;;
14510;SDS011;7341;50.930;4.038;2023-01-08T07:33:12;10.03;;;2.00;;
14510;SDS011;7341;50.930;4.038;2023-01-08T07:35:39;9.17;;;1.83;;
14510;SDS011;7341;50.930;4.038;2023-01-08T07:38:12;7.57;;;1.73;;
14510;SDS011;7341;50.930;4.038;2023-01-08T07:40:40;9.07;;;2.20;;
14510;SDS011;7341;50.930;4.038;2023-01-08T07:43:07;8.10;;;2.23;;
14510;SDS011;7341;50.930;4.038;2023-01-08T07:45:38;5.43;;;2.10;;
14510;SDS011;7341;50.930;4.038;2023-01-08T07:48:07;8.53;;;2.43;;
14510;SDS011;7341;50.930;4.038;2023-01-08T07:50:39;8.13;;;2.92;;
14510;SDS011;7341;50.930;4.038;2023-01-08T07:53:08;6.97;;;2.10;;
14510;SDS011;7341;50.930;4.038;2023-01-08T07:55:36;5.00;;;2.10;;
14510;SDS011;7341;50.930;4.038;2023-01-08T07:58:06;9.50;;;2.10;;
14510;SDS011;7341;50.930;4.038;2023-01-08T08:00:34;7.73;;;1.97;;
14510;SDS011;7341;50.930;4.038;2023-01-08T08:03:03;8.20;;;2.17;;
14510;SDS011;7341;50.930;4.038;2023-01-08T08:05:31;6.70;;;2.03;;
14510;SDS011;7341;50.930;4.038;2023-01-08T08:08:00;6.27;;;1.97;;
14510;SDS011;7341;50.930;4.038;2023-01-08T08:10:27;9.63;;;1.93;;
14510;SDS011;7341;50.930;4.038;2023-01-08T08:12:56;4.73;;;2.00;;
14510;SDS011;7341;50.930;4.038;2023-01-08T08:15:23;9.40;;;2.83;;
14510;SDS011;7341;50.930;4.038;2023-01-08T08:17:50;9.13;;;2.30;;
14510;SDS011;7341;50.930;4.038;2023-01-08T08:20:21;9.53;;;2.33;;
14510;SDS011;7341;50.930;4.038;2023-01-08T08:22:47;6.33;;;2.30;;
14510;SDS011;7341;50.930;4.038;2023-01-08T08:25:14;10.50;;;2.60;;
14510;SDS011;7341;50.930;4.038;2023-01-08T08:27:47;7.07;;;2.07;;
14510;SDS011;7341;50.930;4.038;2023-01-08T08:30:15;9.67;;;2.50;;
14510;SDS011;7341;50.930;4.038;2023-01-08T08:32:43;8.30;;;1.90;;
14510;SDS011;7341;50.930;4.038;2023-01-08T08:35:10;11.47;;;2.23;;
14510;SDS011;7341;50.930;4.038;2023-01-08T08:37:40;5.73;;;2.13;;
14510;SDS011;7341;50.930;4.038;2023-01-08T08:40:12;7.83;;;2.17;;
14510;SDS011;7341;50.930;4.038;2023-01-08T08:42:39;5.77;;;2.00;;
14510;SDS011;7341;50.930;4.038;2023-01-08T08:45:06;7.03;;;2.10;;
14510;SDS011;7341;50.930;4.038;2023-01-08T08:47:33;9.13;;;2.30;;
14510;SDS011;7341;50.930;4.038;2023-01-08T08:50:00;8.40;;;2.20;;
14510;SDS011;7341;50.930;4.038;2023-01-08T08:52:28;10.43;;;2.00;;
14510;SDS011;7341;50.930;4.038;2023-01-08T08:54:57;7.03;;;1.87;;
14510;SDS011;7341;50.930;4.038;2023-01-08T08:57:24;7.57;;;2.00;;
14510;SDS011;7341;50.930;4.038;2023-01-08T08:59:53;7.97;;;1.73;;
14510;SDS011;7341;50.930;4.038;2023-01-08T09:02:20;6.50;;;2.47;;
14510;SDS011;7341;50.930;4.038;2023-01-08T09:04:47;6.83;;;1.93;;
14510;SDS011;7341;50.930;4.038;2023-01-08T09:07:14;4.43;;;1.53;;
14510;SDS011;7341;50.930;4.038;2023-01-08T09:09:41;4.07;;;1.73;;
14510;SDS011;7341;50.930;4.038;2023-01-08T09:12:09;5.57;;;1.60;;
14510;SDS011;7341;50.930;4.038;2023-01-08T09:14:36;2.40;;;1.60;;
14510;SDS011;7341;50.930;4.038;2023-01-08T09:17:02;4.90;;;1.57;;
14510;SDS011;7341;50.930;4.038;2023-01-08T09:19:29;1.20;;;1.10;;
14510;SDS011;7341;50.930;4.038;2023-01-08T09:21:56;6.80;;;1.30;;
14510;SDS011;7341;50.930;4.038;2023-01-08T09:24:23;2.92;;;1.50;;
14510;SDS011;7341;50.930;4.038;2023-01-08T09:26:51;3.43;;;1.43;;
14510;SDS011;7341;50.930;4.038;2023-01-08T09:29:20;3.70;;;1.63;;
14510;SDS011;7341;50.930;4.038;2023-01-08T09:31:48;1.33;;;1.20;;
14510;SDS011;7341;50.930;4.038;2023-01-08T09:34:14;1.00;;;0.97;;
14510;SDS011;7341;50.930;4.038;2023-01-08T09:36:41;4.30;;;1.33;;
14510;SDS011;7341;50.930;4.038;2023-01-08T09:39:10;2.87;;;1.23;;
14510;SDS011;7341;50.930;4.038;2023-01-08T09:41:38;2.03;;;1.20;;
14510;SDS011;7341;50.930;4.038;2023-01-08T09:44:10;2.20;;;1.27;;
14510;SDS011;7341;50.930;4.038;2023-01-08T09:46:46;1.03;;;0.80;;
14510;SDS011;7341;50.930;4.038;2023-01-08T09:49:19;2.07;;;0.80;;
14510;SDS011;7341;50.930;4.038;2023-01-08T09:51:52;1.37;;;0.90;;
14510;SDS011;7341;50.930;4.038;2023-01-08T09:54:19;1.97;;;0.90;;
14510;SDS011;7341;50.930;4.038;2023-01-08T09:56:52;3.33;;;1.20;;
14510;SDS011;7341;50.930;4.038;2023-01-08T09:59:19;4.73;;;1.93;;
14510;SDS011;7341;50.930;4.038;2023-01-08T10:01:48;2.70;;;0.63;;
14510;SDS011;7341;50.930;4.038;2023-01-08T10:04:23;1.40;;;0.70;;
14510;SDS011;7341;50.930;4.038;2023-01-08T10:06:53;2.07;;;0.80;;
14510;SDS011;7341;50.930;4.038;2023-01-08T10:09:23;1.63;;;0.83;;
14510;SDS011;7341;50.930;4.038;2023-01-08T10:11:53;3.00;;;1.00;;
14510;SDS011;7341;50.930;4.038;2023-01-08T10:14:26;1.23;;;0.77;;
14510;SDS011;7341;50.930;4.038;2023-01-08T10:16:59;1.47;;;0.70;;
14510;SDS011;7341;50.930;4.038;2023-01-08T10:19:30;3.00;;;1.10;;
14510;SDS011;7341;50.930;4.038;2023-01-08T10:21:58;3.60;;;1.03;;
14510;SDS011;7341;50.930;4.038;2023-01-08T10:24:31;2.27;;;0.93;;
14510;SDS011;7341;50.930;4.038;2023-01-08T10:27:06;2.53;;;0.93;;
14510;SDS011;7341;50.930;4.038;2023-01-08T10:29:34;2.93;;;1.20;;
14510;SDS011;7341;50.930;4.038;2023-01-08T10:32:07;2.67;;;1.03;;
14510;SDS011;7341;50.930;4.038;2023-01-08T10:34:42;1.77;;;0.97;;
14510;SDS011;7341;50.930;4.038;2023-01-08T10:37:13;5.93;;;1.47;;
14510;SDS011;7341;50.930;4.038;2023-01-08T10:39:44;4.20;;;1.10;;
14510;SDS011;7341;50.930;4.038;2023-01-08T10:42:13;1.80;;;0.70;;
14510;SDS011;7341;50.930;4.038;2023-01-08T10:44:58;4.80;;;1.20;;
14510;SDS011;7341;50.930;4.038;2023-01-08T10:47:32;2.97;;;1.27;;
14510;SDS011;7341;50.930;4.038;2023-01-08T10:50:02;4.30;;;1.40;;
14510;SDS011;7341;50.930;4.038;2023-01-08T10:52:31;5.63;;;1.40;;
14510;SDS011;7341;50.930;4.038;2023-01-08T10:55:10;6.73;;;1.40;;
14510;SDS011;7341;50.930;4.038;2023-01-08T10:57:39;3.03;;;1.03;;
14510;SDS011;7341;50.930;4.038;2023-01-08T11:00:20;5.73;;;1.03;;
14510;SDS011;7341;50.930;4.038;2023-01-08T11:02:50;4.87;;;1.60;;
14510;SDS011;7341;50.930;4.038;2023-01-08T11:05:17;3.87;;;1.57;;
14510;SDS011;7341;50.930;4.038;2023-01-08T11:07:48;3.70;;;1.03;;
14510;SDS011;7341;50.930;4.038;2023-01-08T11:10:22;2.77;;;0.83;;
14510;SDS011;7341;50.930;4.038;2023-01-08T11:12:54;5.03;;;1.20;;
14510;SDS011;7341;50.930;4.038;2023-01-08T11:15:25;4.40;;;1.20;;
14510;SDS011;7341;50.930;4.038;2023-01-08T11:18:04;3.53;;;1.13;;
14510;SDS011;7341;50.930;4.038;2023-01-08T11:20:32;3.60;;;1.37;;
14510;SDS011;7341;50.930;4.038;2023-01-08T11:23:04;3.23;;;1.43;;
14510;SDS011;7341;50.930;4.038;2023-01-08T11:25:31;3.80;;;1.30;;
14510;SDS011;7341;50.930;4.038;2023-01-08T11:28:01;2.97;;;1.13;;
14510;SDS011;7341;50.930;4.038;2023-01-08T11:30:31;5.13;;;1.50;;
14510;SDS011;7341;50.930;4.038;2023-01-08T11:33:04;5.27;;;1.20;;
14510;SDS011;7341;50.930;4.038;2023-01-08T11:35:35;2.63;;;1.17;;
14510;SDS011;7341;50.930;4.038;2023-01-08T11:38:04;2.73;;;1.00;;
14510;SDS011;7341;50.930;4.038;2023-01-08T11:40:35;7.03;;;2.03;;
14510;SDS011;7341;50.930;4.038;2023-01-08T11:43:10;4.50;;;1.30;;
14510;SDS011;7341;50.930;4.038;2023-01-08T12:13:09;6.47;;;1.60;;
14510;SDS011;7341;50.930;4.038;2023-01-08T12:22:25;2.53;;;1.37;;
14510;SDS011;7341;50.930;4.038;2023-01-08T12:34:58;4.03;;;1.60;;
14510;SDS011;7341;50.930;4.038;2023-01-08T12:37:37;7.43;;;1.67;;
14510;SDS011;7341;50.930;4.038;2023-01-08T12:40:13;5.93;;;2.00;;
14510;SDS011;7341;50.930;4.038;2023-01-08T12:42:43;3.53;;;1.83;;
14510;SDS011;7341;50.930;4.038;2023-01-08T12:45:24;4.23;;;1.70;;
14510;SDS011;7341;50.930;4.038;2023-01-08T12:47:55;7.43;;;1.97;;
14510;SDS011;7341;50.930;4.038;2023-01-08T12:50:46;4.07;;;1.60;;
14510;SDS011;7341;50.930;4.038;2023-01-08T12:53:20;5.03;;;1.40;;
14510;SDS011;7341;50.930;4.038;2023-01-08T12:56:10;3.73;;;1.10;;
14510;SDS011;7341;50.930;4.038;2023-01-08T12:58:51;5.97;;;1.43;;
14510;SDS011;7341;50.930;4.038;2023-01-08T13:01:39;3.33;;;1.40;;
14510;SDS011;7341;50.930;4.038;2023-01-08T13:07:10;4.90;;;1.33;;
14510;SDS011;7341;50.930;4.038;2023-01-08T13:09:43;2.77;;;1.27;;
14510;SDS011;7341;50.930;4.038;2023-01-08T13:12:12;3.77;;;1.40;;
14510;SDS011;7341;50.930;4.038;2023-01-08T13:14:52;3.73;;;1.30;;
14510;SDS011;7341;50.930;4.038;2023-01-08T13:17:24;4.57;;;1.70;;
14510;SDS011;7341;50.930;4.038;2023-01-08T13:20:05;2.77;;;1.20;;
14510;SDS011;7341;50.930;4.038;2023-01-08T13:22:34;8.00;;;1.60;;
14510;SDS011;7341;50.930;4.038;2023-01-08T13:25:25;5.40;;;1.57;;
14510;SDS011;7341;50.930;4.038;2023-01-08T13:27:58;4.00;;;1.37;;
14510;SDS011;7341;50.930;4.038;2023-01-08T13:30:33;5.77;;;1.70;;
14510;SDS011;7341;50.930;4.038;2023-01-08T13:36:15;6.03;;;1.70;;
14510;SDS011;7341;50.930;4.038;2023-01-08T13:38:45;3.80;;;1.43;;
14510;SDS011;7341;50.930;4.038;2023-01-08T13:41:27;5.33;;;1.30;;
14510;SDS011;7341;50.930;4.038;2023-01-08T13:44:05;8.57;;;2.37;;
14510;SDS011;7341;50.930;4.038;2023-01-08T13:46:42;4.93;;;1.37;;
14510;SDS011;7341;50.930;4.038;2023-01-08T13:49:22;5.13;;;1.37;;
14510;SDS011;7341;50.930;4.038;2023-01-08T13:51:53;4.53;;;1.43;;
14510;SDS011;7341;50.930;4.038;2023-01-08T13:54:24;6.83;;;1.40;;
14510;SDS011;7341;50.930;4.038;2023-01-08T13:57:10;6.53;;;1.70;;
14510;SDS011;7341;50.930;4.038;2023-01-08T13:59:42;4.53;;;1.30;;
14510;SDS011;7341;50.930;4.038;2023-01-08T14:02:22;3.87;;;1.13;;
14510;SDS011;7341;50.930;4.038;2023-01-08T14:04:51;2.83;;;1.20;;
14510;SDS011;7341;50.930;4.038;2023-01-08T14:07:21;3.67;;;1.43;;
14510;SDS011;7341;50.930;4.038;2023-01-08T14:09:48;6.33;;;1.87;;
14510;SDS011;7341;50.930;4.038;2023-01-08T14:12:16;4.57;;;1.33;;
14510;SDS011;7341;50.930;4.038;2023-01-08T14:14:46;3.23;;;1.40;;
14510;SDS011;7341;50.930;4.038;2023-01-08T14:17:16;4.07;;;1.73;;
14510;SDS011;7341;50.930;4.038;2023-01-08T14:19:45;4.03;;;1.40;;
14510;SDS011;7341;50.930;4.038;2023-01-08T14:22:16;5.90;;;1.67;;
14510;SDS011;7341;50.930;4.038;2023-01-08T14:24:51;5.50;;;1.50;;
14510;SDS011;7341;50.930;4.038;2023-01-08T14:27:22;3.03;;;1.70;;
14510;SDS011;7341;50.930;4.038;2023-01-08T14:29:53;5.10;;;1.40;;
14510;SDS011;7341;50.930;4.038;2023-01-08T14:32:22;6.77;;;1.43;;
14510;SDS011;7341;50.930;4.038;2023-01-08T14:34:51;3.07;;;1.60;;
14510;SDS011;7341;50.930;4.038;2023-01-08T14:37:20;7.27;;;1.87;;
14510;SDS011;7341;50.930;4.038;2023-01-08T14:39:49;3.20;;;1.20;;
14510;SDS011;7341;50.930;4.038;2023-01-08T14:42:17;3.80;;;1.67;;
14510;SDS011;7341;50.930;4.038;2023-01-08T14:45:05;6.63;;;1.50;;
14510;SDS011;7341;50.930;4.038;2023-01-08T14:47:42;7.27;;;1.87;;
14510;SDS011;7341;50.930;4.038;2023-01-08T14:50:15;9.13;;;1.70;;
14510;SDS011;7341;50.930;4.038;2023-01-08T14:52:45;8.43;;;4.73;;
14510;SDS011;7341;50.930;4.038;2023-01-08T14:55:16;6.83;;;1.90;;
14510;SDS011;7341;50.930;4.038;2023-01-08T14:57:45;5.47;;;1.73;;
14510;SDS011;7341;50.930;4.038;2023-01-08T15:00:15;8.63;;;2.13;;
14510;SDS011;7341;50.930;4.038;2023-01-08T15:02:44;6.17;;;1.83;;
14510;SDS011;7341;50.930;4.038;2023-01-08T15:05:15;7.50;;;1.67;;
14510;SDS011;7341;50.930;4.038;2023-01-08T15:07:54;5.17;;;1.63;;
14510;SDS011;7341;50.930;4.038;2023-01-08T15:10:35;8.13;;;2.07;;
14510;SDS011;7341;50.930;4.038;2023-01-08T15:13:04;6.47;;;1.50;;
14510;SDS011;7341;50.930;4.038;2023-01-08T15:15:33;5.33;;;1.33;;
14510;SDS011;7341;50.930;4.038;2023-01-08T15:18:07;2.43;;;1.27;;
14510;SDS011;7341;50.930;4.038;2023-01-08T15:20:50;5.03;;;1.73;;
14510;SDS011;7341;50.930;4.038;2023-01-08T15:24:13;4.10;;;1.50;;
14510;SDS011;7341;50.930;4.038;2023-01-08T15:27:00;6.33;;;2.33;;
14510;SDS011;7341;50.930;4.038;2023-01-08T15:30:20;9.63;;;2.23;;
14510;SDS011;7341;50.930;4.038;2023-01-08T15:33:27;5.87;;;1.70;;
14510;SDS011;7341;50.930;4.038;2023-01-08T15:35:57;6.70;;;1.90;;
14510;SDS011;7341;50.930;4.038;2023-01-08T15:38:24;7.53;;;1.90;;
14510;SDS011;7341;50.930;4.038;2023-01-08T15:40:52;7.83;;;1.60;;
14510;SDS011;7341;50.930;4.038;2023-01-08T15:43:24;7.70;;;1.73;;
14510;SDS011;7341;50.930;4.038;2023-01-08T15:45:50;5.83;;;1.50;;
14510;SDS011;7341;50.930;4.038;2023-01-08T15:48:20;6.00;;;1.83;;
14510;SDS011;7341;50.930;4.038;2023-01-08T15:50:54;8.33;;;1.90;;
14510;SDS011;7341;50.930;4.038;2023-01-08T15:53:22;5.60;;;1.80;;
14510;SDS011;7341;50.930;4.038;2023-01-08T15:55:49;5.40;;;1.83;;
14510;SDS011;7341;50.930;4.038;2023-01-08T15:58:16;5.37;;;2.40;;
14510;SDS011;7341;50.930;4.038;2023-01-08T16:00:45;6.13;;;1.70;;
14510;SDS011;7341;50.930;4.038;2023-01-08T16:03:14;5.87;;;1.80;;
14510;SDS011;7341;50.930;4.038;2023-01-08T16:05:46;7.67;;;1.80;;
14510;SDS011;7341;50.930;4.038;2023-01-08T16:08:13;5.97;;;2.00;;
14510;SDS011;7341;50.930;4.038;2023-01-08T16:10:40;9.23;;;1.87;;
14510;SDS011;7341;50.930;4.038;2023-01-08T16:13:08;7.90;;;2.30;;
14510;SDS011;7341;50.930;4.038;2023-01-08T16:15:37;8.07;;;1.83;;
14510;SDS011;7341;50.930;4.038;2023-01-08T16:18:05;6.10;;;2.30;;
14510;SDS011;7341;50.930;4.038;2023-01-08T16:20:45;9.90;;;2.67;;
14510;SDS011;7341;50.930;4.038;2023-01-08T16:23:32;5.90;;;1.70;;